createdAt,value
2019-05-16T00:01:19.542Z,99.90
2019-05-16T00:03:51.332Z,99.90
2019-05-16T00:06:20.990Z,99.90
2019-05-16T00:08:50.778Z,99.90
2019-05-16T00:11:21.097Z,99.90
2019-05-16T00:13:50.645Z,99.90
2019-05-16T00:16:20.616Z,99.90
2019-05-16T00:18:50.252Z,99.90
2019-05-16T00:21:19.909Z,99.90
2019-05-16T00:23:49.385Z,99.90
2019-05-16T00:26:19.833Z,99.90
2019-05-16T00:28:49.745Z,99.90
2019-05-16T00:31:19.369Z,99.90
2019-05-16T00:33:49.068Z,99.90
2019-05-16T00:36:18.977Z,99.90
2019-05-16T00:38:48.742Z,99.90
2019-05-16T00:41:18.533Z,99.90
2019-05-16T00:43:49.747Z,99.90
2019-05-16T00:46:20.216Z,99.90
2019-05-16T00:48:50.156Z,99.90
2019-05-16T00:51:19.924Z,99.90
2019-05-16T00:53:49.555Z,99.90
2019-05-16T00:56:19.231Z,99.90
2019-05-16T00:58:48.938Z,99.90
2019-05-16T01:01:18.919Z,99.90
2019-05-16T01:03:48.881Z,99.90
2019-05-16T01:06:22.522Z,99.90
2019-05-16T01:08:49.850Z,99.90
2019-05-16T01:11:19.774Z,99.90
2019-05-16T01:13:49.283Z,99.90
2019-05-16T01:16:18.910Z,99.90
2019-05-16T01:18:48.929Z,99.90
2019-05-16T01:21:19.405Z,99.90
2019-05-16T01:23:49.114Z,99.90
2019-05-16T01:26:18.850Z,99.90
2019-05-16T01:28:48.611Z,99.90
2019-05-16T01:31:19.242Z,99.90
2019-05-16T01:33:48.995Z,99.90
2019-05-16T01:36:33.010Z,99.90
2019-05-16T01:38:50.169Z,99.90
2019-05-16T01:41:20.079Z,99.90
2019-05-16T01:43:49.788Z,99.90
2019-05-16T01:46:19.466Z,99.90
2019-05-16T01:48:49.216Z,99.90
2019-05-16T01:51:19.022Z,99.90
2019-05-16T01:53:48.969Z,99.90
2019-05-16T01:56:18.828Z,99.90
2019-05-16T01:58:48.979Z,99.90
2019-05-16T02:01:19.309Z,99.90
2019-05-16T02:03:48.989Z,99.90
2019-05-16T02:06:18.608Z,99.90
2019-05-16T02:08:49.235Z,99.90
2019-05-16T02:11:18.957Z,99.90
2019-05-16T02:13:48.681Z,99.90
2019-05-16T02:16:18.891Z,99.90
2019-05-16T02:18:49.001Z,99.90
2019-05-16T02:21:18.704Z,99.90
2019-05-16T02:23:49.026Z,99.90
2019-05-16T02:26:19.616Z,99.90
2019-05-16T02:28:50.759Z,99.90
2019-05-16T02:31:22.712Z,99.90
2019-05-16T02:33:52.082Z,99.90
2019-05-16T02:36:21.999Z,99.90
2019-05-16T02:38:55.623Z,99.90
2019-05-16T02:41:23.216Z,99.90
2019-05-16T02:43:52.818Z,99.90
2019-05-16T02:46:22.676Z,99.90
2019-05-16T02:48:52.466Z,99.90
2019-05-16T02:51:23.140Z,99.90
2019-05-16T02:53:52.717Z,99.90
2019-05-16T02:56:22.165Z,99.90
2019-05-16T02:58:52.295Z,99.90
2019-05-16T03:01:22.151Z,99.90
2019-05-16T03:03:52.095Z,99.90
2019-05-16T03:06:21.995Z,99.90
2019-05-16T03:08:52.154Z,99.90
2019-05-16T03:11:21.816Z,99.90
2019-05-16T03:13:51.534Z,99.90
2019-05-16T03:16:22.283Z,99.90
2019-05-16T03:18:52.395Z,99.90
2019-05-16T03:21:24.016Z,99.90
2019-05-16T03:23:53.730Z,99.90
2019-05-16T03:26:23.243Z,99.90
2019-05-16T03:28:52.997Z,99.90
2019-05-16T03:31:24.554Z,99.90
2019-05-16T03:33:59.126Z,99.90
2019-05-16T03:36:25.881Z,99.90
2019-05-16T03:38:55.474Z,99.90
2019-05-16T03:41:24.950Z,99.90
2019-05-16T03:43:54.623Z,99.90
2019-05-16T03:46:24.602Z,99.90
2019-05-16T03:48:54.210Z,99.90
2019-05-16T03:51:31.338Z,99.90
2019-05-16T03:54:02.828Z,99.90
2019-05-16T03:56:32.562Z,99.90
2019-05-16T03:59:02.194Z,99.90
2019-05-16T04:01:31.724Z,99.90
2019-05-16T04:04:01.856Z,99.90
2019-05-16T04:06:32.814Z,99.90
2019-05-16T04:09:02.724Z,99.90
2019-05-16T04:11:32.522Z,99.90
2019-05-16T04:14:02.225Z,99.90
2019-05-16T04:16:31.984Z,99.90
2019-05-16T04:19:02.063Z,99.90
2019-05-16T04:21:32.487Z,99.90
2019-05-16T04:24:03.319Z,99.90
2019-05-16T04:26:35.958Z,99.90
2019-05-16T04:29:04.434Z,99.90
2019-05-16T04:31:34.168Z,99.90
2019-05-16T04:34:04.011Z,99.90
2019-05-16T04:36:33.544Z,99.90
2019-05-16T04:39:04.665Z,99.90
2019-05-16T04:41:35.545Z,99.90
2019-05-16T04:44:05.149Z,99.90
2019-05-16T04:46:34.617Z,99.90
2019-05-16T04:49:04.104Z,99.90
2019-05-16T04:51:33.945Z,99.90
2019-05-16T04:54:06.468Z,99.90
2019-05-16T04:56:34.849Z,99.90
2019-05-16T04:59:04.302Z,99.90
2019-05-16T05:01:33.852Z,99.90
2019-05-16T05:04:10.802Z,99.90
2019-05-16T05:06:35.010Z,99.90
2019-05-16T05:09:05.638Z,99.90
2019-05-16T05:11:36.370Z,99.90
2019-05-16T05:14:05.786Z,99.90
2019-05-16T05:16:35.225Z,99.90
2019-05-16T05:19:04.869Z,99.90
2019-05-16T05:21:34.431Z,99.90
2019-05-16T05:24:04.111Z,99.90
2019-05-16T05:26:33.580Z,99.90
2019-05-16T05:29:03.025Z,99.90
2019-05-16T05:31:35.247Z,99.90
2019-05-16T05:34:03.868Z,99.90
2019-05-16T05:36:33.479Z,99.90
2019-05-16T05:39:11.084Z,99.90
2019-05-16T05:41:35.997Z,99.90
2019-05-16T05:44:05.595Z,99.90
2019-05-16T05:46:35.410Z,99.90
2019-05-16T05:49:05.182Z,99.90
2019-05-16T05:51:34.865Z,99.90
2019-05-16T05:54:04.355Z,99.90
2019-05-16T05:56:34.109Z,99.90
2019-05-16T05:59:04.228Z,99.90
2019-05-16T06:01:33.944Z,99.90
2019-05-16T06:04:03.405Z,99.90
2019-05-16T06:06:32.903Z,99.90
2019-05-16T06:09:02.462Z,99.90
2019-05-16T06:11:32.409Z,99.90
2019-05-16T06:14:01.945Z,99.90
2019-05-16T06:16:31.443Z,99.90
2019-05-16T06:19:01.097Z,99.90
2019-05-16T06:21:33.451Z,99.90
2019-05-16T06:24:03.197Z,99.90
2019-05-16T06:26:32.781Z,99.90
2019-05-16T06:29:03.741Z,99.90
2019-05-16T06:31:33.504Z,99.90
2019-05-16T06:34:07.983Z,99.90
2019-05-16T06:36:34.883Z,99.90
2019-05-16T06:39:06.258Z,99.90
2019-05-16T06:41:35.835Z,99.90
2019-05-16T06:44:05.194Z,99.90
2019-05-16T06:46:43.933Z,99.90
2019-05-16T06:49:05.765Z,99.90
2019-05-16T06:51:35.467Z,99.90
2019-05-16T06:54:05.019Z,99.90
2019-05-16T06:56:34.409Z,99.90
2019-05-16T06:59:03.799Z,99.90
2019-05-16T07:01:33.691Z,99.90
2019-05-16T07:04:05.025Z,99.90
2019-05-16T07:06:51.724Z,99.90
2019-05-16T07:09:06.598Z,99.90
2019-05-16T07:11:36.155Z,99.90
2019-05-16T07:14:05.892Z,99.90
2019-05-16T07:16:35.446Z,99.90
2019-05-16T07:19:05.140Z,99.90
2019-05-16T07:21:34.676Z,99.90
2019-05-16T07:24:04.774Z,99.90
2019-05-16T07:26:34.173Z,99.90
2019-05-16T07:29:04.772Z,99.90
2019-05-16T07:31:34.374Z,99.90
2019-05-16T07:34:04.015Z,99.90
2019-05-16T07:36:33.408Z,99.90
2019-05-16T07:39:04.756Z,99.90
2019-05-16T07:41:34.129Z,99.90
2019-05-16T07:44:04.365Z,99.90
2019-05-16T07:46:34.135Z,99.90
2019-05-16T07:49:03.869Z,99.90
2019-05-16T07:51:33.197Z,99.90
2019-05-16T07:54:02.806Z,99.90
2019-05-16T07:56:32.309Z,99.90
2019-05-16T07:59:02.906Z,99.90
2019-05-16T08:01:32.544Z,99.90
2019-05-16T08:04:01.945Z,99.90
2019-05-16T08:06:34.111Z,99.90
2019-05-16T08:09:07.658Z,99.90
2019-05-16T08:11:36.541Z,99.90
2019-05-16T08:14:06.187Z,99.90
2019-05-16T08:16:35.720Z,99.20
2019-05-16T08:19:05.595Z,99.90
2019-05-16T08:21:35.180Z,99.90
2019-05-16T08:26:40.051Z,99.90
2019-05-16T08:29:07.145Z,99.90
2019-05-16T08:31:36.624Z,98.30
2019-05-16T08:34:06.111Z,96.40
2019-05-16T08:36:35.695Z,94.90
2019-05-16T08:39:06.898Z,96.20
2019-05-16T08:41:36.822Z,96.90
2019-05-16T08:44:06.713Z,96.90
2019-05-16T08:46:36.174Z,96.10
2019-05-16T08:49:05.615Z,95.60
2019-05-16T08:50:05.721Z,99.90
2019-05-16T08:51:35.421Z,94.50
2019-05-16T08:54:05.089Z,94.10
2019-05-16T08:56:34.940Z,94.90
2019-05-16T08:59:04.575Z,94.80
2019-05-16T09:01:35.223Z,94.80
2019-05-16T09:04:05.091Z,94.80
2019-05-16T09:06:34.829Z,95.20
2019-05-16T09:09:26.515Z,95.50
2019-05-16T09:11:44.109Z,94.20
2019-05-16T09:14:08.967Z,93.70
2019-05-16T09:16:38.324Z,93.20
2019-05-16T09:19:08.108Z,92.20
2019-05-16T09:21:38.441Z,92.60
2019-05-16T09:24:08.178Z,93.20
2019-05-16T09:26:38.445Z,92.60
2019-05-16T09:29:08.792Z,92.20
2019-05-16T09:31:39.175Z,90.60
2019-05-16T09:34:09.219Z,91.50
2019-05-16T09:36:39.216Z,90.30
2019-05-16T09:39:09.047Z,90.50
2019-05-16T09:41:47.741Z,90.80
2019-05-16T09:44:10.043Z,90.10
2019-05-16T09:46:39.622Z,90.30
2019-05-16T09:49:19.305Z,90.40
2019-05-16T09:51:41.413Z,90.70
2019-05-16T09:54:11.424Z,90.60
2019-05-16T09:56:41.013Z,90.60
2019-05-16T09:59:10.681Z,90.50
2019-05-16T10:01:40.216Z,91.50
2019-05-16T10:04:10.301Z,91.70
2019-05-16T10:06:39.780Z,91.50
2019-05-16T10:09:09.482Z,90.30
2019-05-16T10:11:42.060Z,90.20
2019-05-16T10:14:10.347Z,89.90
2019-05-16T10:16:40.199Z,89.50
2019-05-16T10:19:09.813Z,89.00
2019-05-16T10:21:39.444Z,89.60
2019-05-16T10:24:09.264Z,89.30
2019-05-16T10:26:38.903Z,87.20
2019-05-16T10:29:10.884Z,88.20
2019-05-16T10:31:48.464Z,88.10
2019-05-16T10:34:10.618Z,87.50
2019-05-16T10:36:40.652Z,87.10
2019-05-16T10:39:10.492Z,85.70
2019-05-16T10:41:40.418Z,85.60
2019-05-16T10:44:09.837Z,83.80
2019-05-16T10:46:39.346Z,84.20
2019-05-16T10:49:08.895Z,82.00
2019-05-16T10:51:38.391Z,79.50
2019-05-16T10:54:13.365Z,80.00
2019-05-16T10:56:40.524Z,80.60
2019-05-16T10:59:46.604Z,80.20
2019-05-16T11:01:42.486Z,79.60
2019-05-16T11:04:24.217Z,80.20
2019-05-16T11:06:42.997Z,80.80
2019-05-16T11:09:12.828Z,82.10
2019-05-16T11:11:42.483Z,82.50
2019-05-16T11:14:12.011Z,83.20
2019-05-16T11:16:41.832Z,81.70
2019-05-16T11:19:18.179Z,81.80
2019-05-16T11:21:46.691Z,82.70
2019-05-16T11:24:15.691Z,83.00
2019-05-16T11:26:47.185Z,83.20
2019-05-16T11:29:16.520Z,83.10
2019-05-16T11:31:46.798Z,84.90
2019-05-16T11:34:17.346Z,83.60
2019-05-16T11:36:48.031Z,83.70
2019-05-16T11:39:17.744Z,84.80
2019-05-16T11:41:47.790Z,85.30
2019-05-16T11:44:17.737Z,85.80
2019-05-16T11:46:49.024Z,83.90
2019-05-16T11:49:18.389Z,83.00
2019-05-16T11:51:48.063Z,83.10
2019-05-16T11:54:17.908Z,83.70
2019-05-16T11:56:47.659Z,84.80
2019-05-16T11:59:17.723Z,83.90
2019-05-16T12:01:48.542Z,81.80
2019-05-16T12:04:18.972Z,80.50
2019-05-16T12:06:50.012Z,79.90
2019-05-16T12:09:19.957Z,79.00
2019-05-16T12:11:59.770Z,78.80
2019-05-16T12:14:21.018Z,76.70
2019-05-16T12:16:52.063Z,75.80
2019-05-16T12:19:21.724Z,77.20
2019-05-16T12:21:51.265Z,79.20
2019-05-16T12:24:36.089Z,80.10
2019-05-16T12:26:52.258Z,80.70
2019-05-16T12:29:22.172Z,80.10
2019-05-16T12:31:57.495Z,81.10
2019-05-16T12:34:24.357Z,80.50
2019-05-16T12:36:53.839Z,80.90
2019-05-16T12:39:23.488Z,80.00
2019-05-16T12:41:53.218Z,79.60
2019-05-16T12:44:22.779Z,79.50
2019-05-16T12:46:53.457Z,78.10
2019-05-16T12:49:22.778Z,77.70
2019-05-16T12:51:53.241Z,77.50
2019-05-16T12:54:22.939Z,78.30
2019-05-16T12:56:52.762Z,77.30
2019-05-16T12:59:22.758Z,76.50
2019-05-16T13:01:52.285Z,78.10
2019-05-16T13:04:22.000Z,76.80
2019-05-16T13:06:51.520Z,77.70
2019-05-16T13:09:21.568Z,77.50
2019-05-16T13:11:51.190Z,77.70
2019-05-16T13:14:20.754Z,76.80
2019-05-16T13:16:50.439Z,76.40
2019-05-16T13:19:20.036Z,76.10
2019-05-16T13:21:49.400Z,74.90
2019-05-16T13:24:19.454Z,73.50
2019-05-16T13:26:48.998Z,71.90
2019-05-16T13:29:18.602Z,71.70
2019-05-16T13:31:48.201Z,71.40
2019-05-16T13:34:18.261Z,70.20
2019-05-16T13:36:47.837Z,68.90
2019-05-16T13:39:18.604Z,67.60
2019-05-16T13:41:49.188Z,66.80
2019-05-16T13:44:22.986Z,70.20
2019-05-16T13:46:50.961Z,69.00
2019-05-16T13:49:20.509Z,69.90
2019-05-16T13:51:50.323Z,68.50
2019-05-16T13:54:20.110Z,68.50
2019-05-16T13:56:49.640Z,68.40
2019-05-16T13:59:19.346Z,67.00
2019-05-16T14:01:49.072Z,65.60
2019-05-16T14:04:18.585Z,64.80
2019-05-16T14:06:48.026Z,64.50
2019-05-16T14:09:18.096Z,65.10
2019-05-16T14:11:48.000Z,65.40
2019-05-16T14:14:33.215Z,68.70
2019-05-16T14:16:48.769Z,70.00
2019-05-16T14:19:18.314Z,71.50
2019-05-16T14:21:48.079Z,72.90
2019-05-16T14:24:18.945Z,74.80
2019-05-16T14:26:48.703Z,74.90
2019-05-16T14:29:18.475Z,75.70
2019-05-16T14:31:48.352Z,76.90
2019-05-16T14:34:19.769Z,75.70
2019-05-16T14:36:49.343Z,75.70
2019-05-16T14:39:23.401Z,76.50
2019-05-16T14:41:56.786Z,77.10
2019-05-16T14:44:28.683Z,75.40
2019-05-16T14:46:57.302Z,74.60
2019-05-16T14:49:28.766Z,75.20
2019-05-16T14:51:58.325Z,74.10
2019-05-16T14:54:28.556Z,75.80
2019-05-16T14:57:00.801Z,76.10
2019-05-16T14:59:30.852Z,75.00
2019-05-16T15:02:01.085Z,75.00
2019-05-16T15:04:30.942Z,74.60
2019-05-16T15:07:00.621Z,76.40
2019-05-16T15:09:30.390Z,74.90
2019-05-16T15:11:59.976Z,73.70
2019-05-16T15:14:29.707Z,73.80
2019-05-16T15:16:59.218Z,74.30
2019-05-16T15:19:28.743Z,73.10
2019-05-16T15:22:02.165Z,72.50
2019-05-16T15:24:29.709Z,72.10
2019-05-16T15:27:01.806Z,73.40
2019-05-16T15:29:30.629Z,73.30
2019-05-16T15:32:00.164Z,72.30
2019-05-16T15:34:30.759Z,73.00
2019-05-16T15:37:01.477Z,71.20
2019-05-16T15:39:31.056Z,72.30
2019-05-16T15:42:01.334Z,70.80
2019-05-16T15:44:31.768Z,69.50
2019-05-16T15:47:02.022Z,71.00
2019-05-16T15:49:51.112Z,70.40
2019-05-16T15:52:20.852Z,72.10
2019-05-16T15:54:51.489Z,72.00
2019-05-16T15:57:21.402Z,74.80
2019-05-16T15:59:51.057Z,74.40
2019-05-16T16:02:21.130Z,74.60
2019-05-16T16:04:52.225Z,73.60
2019-05-16T16:07:21.904Z,72.80
2019-05-16T16:09:51.877Z,71.50
2019-05-16T16:12:21.397Z,71.20
2019-05-16T16:14:51.089Z,70.30
2019-05-16T16:17:20.656Z,71.60
2019-05-16T16:19:50.269Z,71.40
2019-05-16T16:22:19.782Z,71.80
2019-05-16T16:24:49.558Z,71.00
2019-05-16T16:27:19.080Z,71.30
2019-05-16T16:29:48.884Z,71.90
2019-05-16T16:32:18.571Z,72.10
2019-05-16T16:34:49.041Z,72.50
2019-05-16T16:37:19.019Z,72.40
2019-05-16T16:39:49.793Z,74.60
2019-05-16T16:42:19.732Z,76.40
2019-05-16T16:44:49.255Z,77.10
2019-05-16T16:47:18.994Z,78.50
2019-05-16T16:49:48.492Z,78.90
2019-05-16T16:52:18.078Z,79.60
2019-05-16T16:54:48.116Z,80.70
2019-05-16T16:57:18.007Z,80.80
2019-05-16T16:59:47.875Z,80.70
2019-05-16T17:02:17.593Z,80.90
2019-05-16T17:04:51.019Z,80.50
2019-05-16T17:07:27.366Z,81.30
2019-05-16T17:09:57.137Z,80.60
2019-05-16T17:12:26.742Z,81.40
2019-05-16T17:14:56.971Z,81.30
2019-05-16T17:17:27.051Z,82.10
2019-05-16T17:19:56.914Z,83.40
2019-05-16T17:22:26.663Z,83.90
2019-05-16T17:24:56.914Z,83.50
2019-05-16T17:27:26.960Z,83.80
2019-05-16T17:30:00.760Z,84.30
2019-05-16T17:32:32.597Z,84.20
2019-05-16T17:35:02.493Z,86.10
2019-05-16T17:37:33.120Z,84.50
2019-05-16T17:40:02.788Z,84.60
2019-05-16T17:42:34.541Z,84.60
2019-05-16T17:45:07.426Z,84.90
2019-05-16T17:47:37.422Z,85.00
2019-05-16T17:50:10.324Z,85.50
2019-05-16T17:52:40.312Z,85.40
2019-05-16T17:55:09.836Z,84.60
2019-05-16T17:57:39.606Z,84.60
2019-05-16T18:00:12.766Z,84.90
2019-05-16T18:02:41.813Z,84.90
2019-05-16T18:05:11.445Z,84.50
2019-05-16T18:07:41.120Z,84.30
2019-05-16T18:10:10.877Z,83.20
2019-05-16T18:12:40.587Z,83.50
2019-05-16T18:15:11.062Z,84.20
2019-05-16T18:17:40.881Z,85.40
2019-05-16T18:20:10.824Z,86.30
2019-05-16T18:22:40.530Z,87.10
2019-05-16T18:25:10.120Z,87.60
2019-05-16T18:27:39.853Z,88.00
2019-05-16T18:30:09.764Z,88.90
2019-05-16T18:32:40.268Z,89.30
2019-05-16T18:35:09.919Z,89.40
2019-05-16T18:37:39.639Z,89.80
2019-05-16T18:40:09.934Z,90.10
2019-05-16T18:42:40.063Z,90.40
2019-05-16T18:45:09.852Z,90.80
2019-05-16T18:47:39.447Z,91.00
2019-05-16T18:50:09.005Z,91.10
2019-05-16T18:52:38.803Z,91.30
2019-05-16T18:55:09.219Z,91.50
2019-05-16T18:57:38.741Z,91.50
2019-05-16T19:00:10.655Z,91.70
2019-05-16T19:02:41.772Z,92.00
2019-05-16T19:05:11.395Z,92.10
2019-05-16T19:07:41.211Z,92.30
2019-05-16T19:10:10.674Z,92.50
2019-05-16T19:12:40.190Z,92.50
2019-05-16T19:15:09.875Z,92.60
2019-05-16T19:17:39.675Z,92.60
2019-05-16T19:20:09.207Z,92.80
2019-05-16T19:22:38.598Z,93.40
2019-05-16T19:25:09.098Z,93.10
2019-05-16T19:27:38.941Z,93.30
2019-05-16T19:30:08.753Z,93.30
2019-05-16T19:32:39.570Z,93.50
2019-05-16T19:35:09.920Z,93.60
2019-05-16T19:37:44.119Z,93.60
2019-05-16T19:40:14.245Z,94.80
2019-05-16T19:42:44.285Z,94.00
2019-05-16T19:45:16.905Z,94.30
2019-05-16T19:47:46.998Z,94.40
2019-05-16T19:50:17.222Z,94.40
2019-05-16T19:52:47.298Z,94.50
2019-05-16T19:55:17.309Z,94.40
2019-05-16T19:57:47.397Z,94.40
2019-05-16T20:00:18.489Z,94.70
2019-05-16T20:02:48.201Z,95.40
2019-05-16T20:05:17.799Z,95.10
2019-05-16T20:07:47.293Z,95.10
2019-05-16T20:10:17.012Z,95.20
2019-05-16T20:12:46.623Z,95.20
2019-05-16T20:15:16.549Z,95.80
2019-05-16T20:17:58.260Z,95.90
2019-05-16T20:20:18.644Z,95.90
2019-05-16T20:22:48.707Z,95.90
2019-05-16T20:25:18.293Z,95.70
2019-05-16T20:27:47.897Z,95.60
2019-05-16T20:30:17.564Z,95.60
2019-05-16T20:32:47.631Z,95.60
2019-05-16T20:35:17.522Z,95.70
2019-05-16T20:37:47.369Z,95.70
2019-05-16T20:40:17.346Z,95.80
2019-05-16T20:42:47.538Z,95.90
2019-05-16T20:45:17.461Z,96.10
2019-05-16T20:47:46.965Z,96.20
2019-05-16T20:50:17.215Z,96.80
2019-05-16T20:52:48.679Z,96.70
2019-05-16T20:55:18.643Z,96.80
2019-05-16T20:57:48.574Z,96.80
2019-05-16T21:00:18.217Z,96.90
2019-05-16T21:02:49.508Z,97.00
2019-05-16T21:05:19.396Z,97.10
2019-05-16T21:07:53.769Z,97.20
2019-05-16T21:10:27.097Z,98.10
2019-05-16T21:12:57.415Z,98.00
2019-05-16T21:15:29.463Z,97.20
2019-05-16T21:17:59.898Z,97.70
2019-05-16T21:20:32.420Z,97.70
2019-05-16T21:23:02.307Z,98.70
2019-05-16T21:25:32.110Z,98.00
2019-05-16T21:28:01.696Z,98.10
2019-05-16T21:30:31.392Z,98.50
2019-05-16T21:33:01.319Z,98.60
2019-05-16T21:35:32.744Z,98.80
2019-05-16T21:38:02.768Z,99.00
2019-05-16T21:40:32.438Z,99.00
2019-05-16T21:43:02.366Z,99.40
2019-05-16T21:45:32.026Z,99.20
2019-05-16T21:48:01.612Z,99.30
2019-05-16T21:50:31.392Z,99.50
2019-05-16T21:53:00.952Z,99.60
2019-05-16T21:55:30.508Z,99.10
2019-05-16T21:58:00.052Z,98.90
2019-05-16T22:00:38.889Z,98.90
2019-05-16T22:03:09.877Z,98.80
2019-05-16T22:05:40.877Z,98.80
2019-05-16T22:08:11.870Z,98.70
2019-05-16T22:10:41.746Z,98.70
2019-05-16T22:13:13.122Z,98.60
2019-05-16T22:15:43.690Z,98.60
2019-05-16T22:18:13.758Z,98.70
2019-05-16T22:20:43.924Z,98.70
2019-05-16T22:23:13.672Z,98.80
2019-05-16T22:25:44.411Z,99.00
2019-05-16T22:28:14.113Z,98.90
2019-05-16T22:30:43.758Z,99.00
2019-05-16T22:33:13.409Z,99.00
2019-05-16T22:35:46.863Z,99.10
2019-05-16T22:38:16.818Z,99.50
2019-05-16T22:40:47.034Z,99.40
2019-05-16T22:43:17.414Z,99.50
2019-05-16T22:45:47.304Z,99.50
2019-05-16T22:48:17.255Z,99.50
2019-05-16T22:50:47.504Z,99.50
2019-05-16T22:53:17.376Z,99.70
2019-05-16T22:55:48.009Z,99.80
2019-05-16T22:58:17.961Z,99.90
2019-05-16T23:00:47.558Z,99.70
2019-05-16T23:03:17.522Z,99.80
2019-05-16T23:05:47.524Z,99.90
2019-05-16T23:08:18.339Z,99.90
2019-05-16T23:10:51.203Z,99.90
2019-05-16T23:13:20.853Z,99.90
2019-05-16T23:15:50.713Z,99.90
2019-05-16T23:18:20.355Z,99.90
2019-05-16T23:20:50.138Z,99.90
2019-05-16T23:23:19.729Z,99.90
2019-05-16T23:25:49.561Z,99.90
2019-05-16T23:28:19.273Z,99.90
2019-05-16T23:30:48.863Z,99.90
2019-05-16T23:33:18.543Z,99.90
2019-05-16T23:35:48.206Z,99.90
2019-05-16T23:38:20.064Z,99.90
2019-05-16T23:40:49.175Z,99.90
2019-05-16T23:43:18.771Z,99.90
2019-05-16T23:45:48.347Z,99.90
2019-05-16T23:48:18.069Z,99.90
2019-05-16T23:50:47.751Z,99.90
2019-05-16T23:53:17.346Z,99.90
2019-05-16T23:55:47.223Z,99.90
2019-05-16T23:58:17.864Z,99.90
